sensor_id;sensor_type;location;lat;lon;timestamp;P1;durP1;ratioP1;P2;durP2;ratioP2
51525;SDS011;37611;51.794;21.590;2024-03-22T00:02:41;28.50;;;18.70;;
51525;SDS011;37611;51.794;21.590;2024-03-22T00:06:45;27.10;;;19.60;;
51525;SDS011;37611;51.794;21.590;2024-03-22T00:10:48;24.90;;;17.80;;
51525;SDS011;37611;51.794;21.590;2024-03-22T00:14:50;28.20;;;19.70;;
51525;SDS011;37611;51.794;21.590;2024-03-22T00:18:54;30.30;;;21.80;;
51525;SDS011;37611;51.794;21.590;2024-03-22T00:22:56;27.70;;;19.90;;
51525;SDS011;37611;51.794;21.590;2024-03-22T00:26:57;24.70;;;18.30;;
51525;SDS011;37611;51.794;21.590;2024-03-22T00:30:59;27.80;;;18.90;;
51525;SDS011;37611;51.794;21.590;2024-03-22T00:35:01;28.60;;;20.40;;
51525;SDS011;37611;51.794;21.590;2024-03-22T00:39:03;33.30;;;23.30;;
51525;SDS011;37611;51.794;21.590;2024-03-22T00:43:06;35.80;;;23.90;;
51525;SDS011;37611;51.794;21.590;2024-03-22T00:47:07;34.50;;;23.00;;
51525;SDS011;37611;51.794;21.590;2024-03-22T00:51:09;32.00;;;22.30;;
51525;SDS011;37611;51.794;21.590;2024-03-22T00:55:11;35.20;;;22.60;;
51525;SDS011;37611;51.794;21.590;2024-03-22T00:59:13;32.50;;;22.40;;
51525;SDS011;37611;51.794;21.590;2024-03-22T01:03:14;32.00;;;21.80;;
51525;SDS011;37611;51.794;21.590;2024-03-22T01:07:16;31.20;;;22.10;;
51525;SDS011;37611;51.794;21.590;2024-03-22T01:11:18;31.30;;;22.40;;
51525;SDS011;37611;51.794;21.590;2024-03-22T01:15:20;30.50;;;22.50;;
51525;SDS011;37611;51.794;21.590;2024-03-22T01:19:21;35.70;;;22.40;;
51525;SDS011;37611;51.794;21.590;2024-03-22T01:23:24;28.50;;;23.10;;
51525;SDS011;37611;51.794;21.590;2024-03-22T01:27:25;35.60;;;24.40;;
51525;SDS011;37611;51.794;21.590;2024-03-22T01:31:27;35.80;;;26.40;;
51525;SDS011;37611;51.794;21.590;2024-03-22T01:35:29;39.90;;;24.70;;
51525;SDS011;37611;51.794;21.590;2024-03-22T01:39:31;41.60;;;24.80;;
51525;SDS011;37611;51.794;21.590;2024-03-22T01:43:33;37.30;;;25.20;;
51525;SDS011;37611;51.794;21.590;2024-03-22T01:47:34;35.20;;;24.20;;
51525;SDS011;37611;51.794;21.590;2024-03-22T01:51:36;32.10;;;23.30;;
51525;SDS011;37611;51.794;21.590;2024-03-22T01:55:39;35.70;;;24.30;;
51525;SDS011;37611;51.794;21.590;2024-03-22T01:59:41;40.50;;;25.60;;
51525;SDS011;37611;51.794;21.590;2024-03-22T02:03:43;31.70;;;24.10;;
51525;SDS011;37611;51.794;21.590;2024-03-22T02:07:45;36.00;;;25.50;;
51525;SDS011;37611;51.794;21.590;2024-03-22T02:11:47;33.10;;;24.50;;
51525;SDS011;37611;51.794;21.590;2024-03-22T02:15:50;40.80;;;28.30;;
51525;SDS011;37611;51.794;21.590;2024-03-22T02:19:52;37.30;;;27.80;;
51525;SDS011;37611;51.794;21.590;2024-03-22T02:23:53;39.40;;;27.80;;
51525;SDS011;37611;51.794;21.590;2024-03-22T02:27:55;41.70;;;28.80;;
51525;SDS011;37611;51.794;21.590;2024-03-22T02:31:57;40.00;;;27.60;;
51525;SDS011;37611;51.794;21.590;2024-03-22T02:35:59;41.10;;;29.00;;
51525;SDS011;37611;51.794;21.590;2024-03-22T02:40:01;37.80;;;27.40;;
51525;SDS011;37611;51.794;21.590;2024-03-22T02:44:03;38.20;;;29.40;;
51525;SDS011;37611;51.794;21.590;2024-03-22T02:48:05;38.70;;;28.50;;
51525;SDS011;37611;51.794;21.590;2024-03-22T02:52:07;38.60;;;28.60;;
51525;SDS011;37611;51.794;21.590;2024-03-22T02:56:09;38.70;;;29.10;;
51525;SDS011;37611;51.794;21.590;2024-03-22T03:00:11;40.60;;;31.30;;
51525;SDS011;37611;51.794;21.590;2024-03-22T03:04:13;38.60;;;29.00;;
51525;SDS011;37611;51.794;21.590;2024-03-22T03:08:15;49.00;;;33.90;;
51525;SDS011;37611;51.794;21.590;2024-03-22T03:12:17;50.30;;;34.10;;
51525;SDS011;37611;51.794;21.590;2024-03-22T03:16:18;42.20;;;33.60;;
51525;SDS011;37611;51.794;21.590;2024-03-22T03:20:20;46.90;;;34.50;;
51525;SDS011;37611;51.794;21.590;2024-03-22T03:24:22;47.10;;;34.40;;
51525;SDS011;37611;51.794;21.590;2024-03-22T03:28:24;48.60;;;35.00;;
51525;SDS011;37611;51.794;21.590;2024-03-22T03:32:27;48.50;;;34.00;;
51525;SDS011;37611;51.794;21.590;2024-03-22T03:36:29;44.40;;;34.00;;
51525;SDS011;37611;51.794;21.590;2024-03-22T03:40:31;43.60;;;33.20;;
51525;SDS011;37611;51.794;21.590;2024-03-22T03:44:32;52.60;;;35.40;;
51525;SDS011;37611;51.794;21.590;2024-03-22T03:48:34;46.00;;;33.70;;
51525;SDS011;37611;51.794;21.590;2024-03-22T03:52:36;51.60;;;36.20;;
51525;SDS011;37611;51.794;21.590;2024-03-22T03:56:38;48.40;;;35.00;;
51525;SDS011;37611;51.794;21.590;2024-03-22T04:00:39;44.60;;;34.10;;
51525;SDS011;37611;51.794;21.590;2024-03-22T04:04:41;45.10;;;34.10;;
51525;SDS011;37611;51.794;21.590;2024-03-22T04:08:43;49.40;;;35.50;;
51525;SDS011;37611;51.794;21.590;2024-03-22T04:12:45;56.40;;;41.20;;
51525;SDS011;37611;51.794;21.590;2024-03-22T04:16:47;54.30;;;38.10;;
51525;SDS011;37611;51.794;21.590;2024-03-22T04:20:59;63.80;;;44.50;;
51525;SDS011;37611;51.794;21.590;2024-03-22T04:25:01;67.70;;;48.20;;
51525;SDS011;37611;51.794;21.590;2024-03-22T04:29:02;63.60;;;44.30;;
51525;SDS011;37611;51.794;21.590;2024-03-22T04:33:04;60.40;;;44.10;;
51525;SDS011;37611;51.794;21.590;2024-03-22T04:37:06;59.70;;;43.70;;
51525;SDS011;37611;51.794;21.590;2024-03-22T04:41:08;60.20;;;43.40;;
51525;SDS011;37611;51.794;21.590;2024-03-22T04:45:10;59.90;;;43.30;;
51525;SDS011;37611;51.794;21.590;2024-03-22T04:49:12;54.50;;;41.80;;
51525;SDS011;37611;51.794;21.590;2024-03-22T04:53:14;56.10;;;43.00;;
51525;SDS011;37611;51.794;21.590;2024-03-22T04:57:16;52.90;;;40.40;;
51525;SDS011;37611;51.794;21.590;2024-03-22T05:01:17;53.40;;;43.90;;
51525;SDS011;37611;51.794;21.590;2024-03-22T05:05:19;66.40;;;49.20;;
51525;SDS011;37611;51.794;21.590;2024-03-22T05:09:21;79.00;;;59.20;;
51525;SDS011;37611;51.794;21.590;2024-03-22T05:13:22;62.80;;;49.30;;
51525;SDS011;37611;51.794;21.590;2024-03-22T05:17:24;62.80;;;49.30;;
51525;SDS011;37611;51.794;21.590;2024-03-22T05:21:26;54.30;;;44.20;;
51525;SDS011;37611;51.794;21.590;2024-03-22T05:25:28;54.30;;;42.00;;
51525;SDS011;37611;51.794;21.590;2024-03-22T05:29:30;53.50;;;42.30;;
51525;SDS011;37611;51.794;21.590;2024-03-22T05:33:31;53.60;;;43.10;;
51525;SDS011;37611;51.794;21.590;2024-03-22T05:37:33;53.10;;;43.70;;
51525;SDS011;37611;51.794;21.590;2024-03-22T05:41:38;75.80;;;56.80;;
51525;SDS011;37611;51.794;21.590;2024-03-22T05:45:40;54.70;;;43.10;;
51525;SDS011;37611;51.794;21.590;2024-03-22T05:49:42;53.80;;;41.50;;
51525;SDS011;37611;51.794;21.590;2024-03-22T05:53:44;51.50;;;40.70;;
51525;SDS011;37611;51.794;21.590;2024-03-22T05:57:46;51.20;;;37.90;;
51525;SDS011;37611;51.794;21.590;2024-03-22T06:01:48;46.10;;;39.30;;
51525;SDS011;37611;51.794;21.590;2024-03-22T06:05:50;38.70;;;31.80;;
51525;SDS011;37611;51.794;21.590;2024-03-22T06:09:56;34.50;;;28.30;;
51525;SDS011;37611;51.794;21.590;2024-03-22T06:13:58;38.60;;;32.20;;
51525;SDS011;37611;51.794;21.590;2024-03-22T06:17:59;34.20;;;30.50;;
51525;SDS011;37611;51.794;21.590;2024-03-22T06:22:01;37.10;;;33.10;;
51525;SDS011;37611;51.794;21.590;2024-03-22T06:26:04;33.90;;;28.20;;
51525;SDS011;37611;51.794;21.590;2024-03-22T06:30:06;33.00;;;28.40;;
51525;SDS011;37611;51.794;21.590;2024-03-22T06:34:08;32.00;;;27.80;;
51525;SDS011;37611;51.794;21.590;2024-03-22T06:38:10;35.90;;;30.60;;
51525;SDS011;37611;51.794;21.590;2024-03-22T06:42:12;38.40;;;31.40;;
51525;SDS011;37611;51.794;21.590;2024-03-22T06:46:13;36.30;;;30.20;;
51525;SDS011;37611;51.794;21.590;2024-03-22T06:50:15;37.40;;;30.70;;
51525;SDS011;37611;51.794;21.590;2024-03-22T06:54:19;36.60;;;31.60;;
51525;SDS011;37611;51.794;21.590;2024-03-22T06:58:20;37.60;;;30.30;;
51525;SDS011;37611;51.794;21.590;2024-03-22T07:02:22;37.50;;;31.40;;
51525;SDS011;37611;51.794;21.590;2024-03-22T07:06:24;39.00;;;30.10;;
51525;SDS011;37611;51.794;21.590;2024-03-22T07:10:26;38.10;;;29.30;;
51525;SDS011;37611;51.794;21.590;2024-03-22T07:14:29;37.50;;;29.10;;
51525;SDS011;37611;51.794;21.590;2024-03-22T07:18:30;48.10;;;40.40;;
51525;SDS011;37611;51.794;21.590;2024-03-22T07:22:32;39.90;;;34.10;;
51525;SDS011;37611;51.794;21.590;2024-03-22T07:26:34;44.40;;;35.70;;
51525;SDS011;37611;51.794;21.590;2024-03-22T07:30:36;41.60;;;32.70;;
51525;SDS011;37611;51.794;21.590;2024-03-22T07:34:38;34.00;;;27.90;;
51525;SDS011;37611;51.794;21.590;2024-03-22T07:38:40;38.00;;;29.70;;
51525;SDS011;37611;51.794;21.590;2024-03-22T07:42:41;37.10;;;30.60;;
51525;SDS011;37611;51.794;21.590;2024-03-22T07:46:43;37.10;;;29.40;;
51525;SDS011;37611;51.794;21.590;2024-03-22T07:50:46;34.40;;;27.50;;
51525;SDS011;37611;51.794;21.590;2024-03-22T07:54:47;34.90;;;27.10;;
51525;SDS011;37611;51.794;21.590;2024-03-22T07:58:49;33.00;;;27.30;;
51525;SDS011;37611;51.794;21.590;2024-03-22T08:02:51;40.70;;;31.90;;
51525;SDS011;37611;51.794;21.590;2024-03-22T08:06:53;36.00;;;29.30;;
51525;SDS011;37611;51.794;21.590;2024-03-22T08:10:55;38.20;;;28.60;;
51525;SDS011;37611;51.794;21.590;2024-03-22T08:14:57;38.10;;;30.50;;
51525;SDS011;37611;51.794;21.590;2024-03-22T08:18:58;36.90;;;28.40;;
51525;SDS011;37611;51.794;21.590;2024-03-22T08:23:00;36.00;;;28.60;;
51525;SDS011;37611;51.794;21.590;2024-03-22T08:27:02;33.40;;;27.90;;
51525;SDS011;37611;51.794;21.590;2024-03-22T08:31:05;36.00;;;28.60;;
51525;SDS011;37611;51.794;21.590;2024-03-22T08:35:07;31.60;;;26.90;;
51525;SDS011;37611;51.794;21.590;2024-03-22T08:39:09;33.70;;;26.60;;
51525;SDS011;37611;51.794;21.590;2024-03-22T08:43:11;28.30;;;25.30;;
51525;SDS011;37611;51.794;21.590;2024-03-22T08:47:13;29.90;;;25.40;;
51525;SDS011;37611;51.794;21.590;2024-03-22T08:51:15;29.70;;;23.90;;
51525;SDS011;37611;51.794;21.590;2024-03-22T08:55:16;30.50;;;24.40;;
51525;SDS011;37611;51.794;21.590;2024-03-22T08:59:18;29.30;;;23.70;;
51525;SDS011;37611;51.794;21.590;2024-03-22T09:03:20;27.30;;;22.60;;
51525;SDS011;37611;51.794;21.590;2024-03-22T09:07:22;28.60;;;23.10;;
51525;SDS011;37611;51.794;21.590;2024-03-22T09:11:25;35.20;;;27.00;;
51525;SDS011;37611;51.794;21.590;2024-03-22T09:15:27;30.00;;;24.60;;
51525;SDS011;37611;51.794;21.590;2024-03-22T09:19:28;25.60;;;20.00;;
51525;SDS011;37611;51.794;21.590;2024-03-22T09:23:30;24.30;;;20.10;;
51525;SDS011;37611;51.794;21.590;2024-03-22T09:27:32;25.60;;;20.10;;
51525;SDS011;37611;51.794;21.590;2024-03-22T09:31:33;25.20;;;21.40;;
51525;SDS011;37611;51.794;21.590;2024-03-22T09:35:35;31.10;;;26.30;;
51525;SDS011;37611;51.794;21.590;2024-03-22T09:39:37;26.60;;;22.60;;
51525;SDS011;37611;51.794;21.590;2024-03-22T09:43:39;24.20;;;18.30;;
51525;SDS011;37611;51.794;21.590;2024-03-22T09:47:41;23.10;;;18.90;;
51525;SDS011;37611;51.794;21.590;2024-03-22T09:51:43;31.70;;;27.20;;
51525;SDS011;37611;51.794;21.590;2024-03-22T09:55:47;25.10;;;21.70;;
51525;SDS011;37611;51.794;21.590;2024-03-22T09:59:50;25.10;;;19.80;;
51525;SDS011;37611;51.794;21.590;2024-03-22T10:03:53;22.60;;;19.60;;
51525;SDS011;37611;51.794;21.590;2024-03-22T10:07:56;26.80;;;20.50;;
51525;SDS011;37611;51.794;21.590;2024-03-22T10:11:58;22.10;;;18.80;;
51525;SDS011;37611;51.794;21.590;2024-03-22T10:16:00;24.00;;;19.20;;
51525;SDS011;37611;51.794;21.590;2024-03-22T10:20:03;21.30;;;17.60;;
51525;SDS011;37611;51.794;21.590;2024-03-22T10:24:05;21.80;;;18.50;;
51525;SDS011;37611;51.794;21.590;2024-03-22T10:28:09;25.10;;;19.70;;
51525;SDS011;37611;51.794;21.590;2024-03-22T10:32:11;25.10;;;20.50;;
51525;SDS011;37611;51.794;21.590;2024-03-22T10:36:13;22.30;;;19.00;;
51525;SDS011;37611;51.794;21.590;2024-03-22T10:40:17;27.20;;;24.00;;
51525;SDS011;37611;51.794;21.590;2024-03-22T10:44:20;26.00;;;19.20;;
51525;SDS011;37611;51.794;21.590;2024-03-22T10:48:22;23.00;;;19.90;;
51525;SDS011;37611;51.794;21.590;2024-03-22T10:52:27;22.30;;;19.90;;
51525;SDS011;37611;51.794;21.590;2024-03-22T10:56:29;23.60;;;18.50;;
51525;SDS011;37611;51.794;21.590;2024-03-22T11:00:33;22.60;;;18.60;;
51525;SDS011;37611;51.794;21.590;2024-03-22T11:04:36;28.10;;;20.40;;
51525;SDS011;37611;51.794;21.590;2024-03-22T11:08:38;31.10;;;21.00;;
51525;SDS011;37611;51.794;21.590;2024-03-22T11:12:41;54.80;;;29.30;;
51525;SDS011;37611;51.794;21.590;2024-03-22T11:16:49;27.90;;;19.90;;
51525;SDS011;37611;51.794;21.590;2024-03-22T11:20:50;40.60;;;25.70;;
51525;SDS011;37611;51.794;21.590;2024-03-22T11:24:53;79.00;;;41.10;;
51525;SDS011;37611;51.794;21.590;2024-03-22T11:28:54;63.20;;;33.40;;
51525;SDS011;37611;51.794;21.590;2024-03-22T11:32:56;50.90;;;29.50;;
51525;SDS011;37611;51.794;21.590;2024-03-22T11:36:58;99.50;;;53.90;;
51525;SDS011;37611;51.794;21.590;2024-03-22T11:41:00;38.00;;;27.00;;
51525;SDS011;37611;51.794;21.590;2024-03-22T11:45:04;20.00;;;15.80;;
51525;SDS011;37611;51.794;21.590;2024-03-22T11:49:07;18.50;;;16.20;;
51525;SDS011;37611;51.794;21.590;2024-03-22T11:53:09;19.10;;;15.70;;
51525;SDS011;37611;51.794;21.590;2024-03-22T11:57:11;31.90;;;24.50;;
51525;SDS011;37611;51.794;21.590;2024-03-22T12:01:13;17.60;;;14.90;;
51525;SDS011;37611;51.794;21.590;2024-03-22T12:05:17;16.20;;;14.30;;
51525;SDS011;37611;51.794;21.590;2024-03-22T12:09:19;26.30;;;20.80;;
51525;SDS011;37611;51.794;21.590;2024-03-22T12:13:20;21.20;;;16.30;;
51525;SDS011;37611;51.794;21.590;2024-03-22T12:17:22;23.90;;;19.10;;
51525;SDS011;37611;51.794;21.590;2024-03-22T12:21:24;23.70;;;19.10;;
51525;SDS011;37611;51.794;21.590;2024-03-22T12:25:26;16.90;;;14.30;;
51525;SDS011;37611;51.794;21.590;2024-03-22T12:29:28;32.50;;;20.40;;
51525;SDS011;37611;51.794;21.590;2024-03-22T12:33:30;52.00;;;32.70;;
51525;SDS011;37611;51.794;21.590;2024-03-22T12:37:31;19.30;;;15.10;;
51525;SDS011;37611;51.794;21.590;2024-03-22T12:41:33;31.10;;;21.90;;
51525;SDS011;37611;51.794;21.590;2024-03-22T12:45:35;35.80;;;21.80;;
51525;SDS011;37611;51.794;21.590;2024-03-22T12:49:37;44.60;;;26.90;;
51525;SDS011;37611;51.794;21.590;2024-03-22T12:53:39;21.50;;;17.20;;
51525;SDS011;37611;51.794;21.590;2024-03-22T12:57:40;29.00;;;21.70;;
51525;SDS011;37611;51.794;21.590;2024-03-22T13:01:42;13.60;;;12.20;;
51525;SDS011;37611;51.794;21.590;2024-03-22T13:05:45;16.70;;;14.90;;
51525;SDS011;37611;51.794;21.590;2024-03-22T13:09:47;15.50;;;12.40;;
51525;SDS011;37611;51.794;21.590;2024-03-22T13:13:48;13.60;;;12.20;;
51525;SDS011;37611;51.794;21.590;2024-03-22T13:17:50;15.00;;;13.50;;
51525;SDS011;37611;51.794;21.590;2024-03-22T13:21:52;14.60;;;13.20;;
51525;SDS011;37611;51.794;21.590;2024-03-22T13:25:54;13.00;;;11.60;;
51525;SDS011;37611;51.794;21.590;2024-03-22T13:29:56;23.60;;;17.90;;
51525;SDS011;37611;51.794;21.590;2024-03-22T13:33:58;12.20;;;10.80;;
51525;SDS011;37611;51.794;21.590;2024-03-22T13:38:00;17.80;;;14.30;;
51525;SDS011;37611;51.794;21.590;2024-03-22T13:42:02;12.90;;;11.50;;
51525;SDS011;37611;51.794;21.590;2024-03-22T13:46:03;13.80;;;12.10;;
51525;SDS011;37611;51.794;21.590;2024-03-22T13:50:06;13.10;;;11.70;;
51525;SDS011;37611;51.794;21.590;2024-03-22T13:58:16;13.10;;;11.70;;
51525;SDS011;37611;51.794;21.590;2024-03-22T14:02:18;14.50;;;12.10;;
51525;SDS011;37611;51.794;21.590;2024-03-22T14:06:20;15.30;;;11.30;;
51525;SDS011;37611;51.794;21.590;2024-03-22T14:10:22;16.70;;;11.70;;
51525;SDS011;37611;51.794;21.590;2024-03-22T14:14:24;15.10;;;12.20;;
51525;SDS011;37611;51.794;21.590;2024-03-22T14:18:25;12.50;;;11.20;;
51525;SDS011;37611;51.794;21.590;2024-03-22T14:22:27;19.60;;;13.70;;
51525;SDS011;37611;51.794;21.590;2024-03-22T14:26:29;15.40;;;12.00;;
51525;SDS011;37611;51.794;21.590;2024-03-22T14:30:31;21.20;;;15.80;;
51525;SDS011;37611;51.794;21.590;2024-03-22T14:34:32;15.50;;;13.20;;
51525;SDS011;37611;51.794;21.590;2024-03-22T14:38:34;15.40;;;12.50;;
51525;SDS011;37611;51.794;21.590;2024-03-22T14:42:37;15.90;;;12.80;;
51525;SDS011;37611;51.794;21.590;2024-03-22T14:46:40;24.80;;;20.60;;
51525;SDS011;37611;51.794;21.590;2024-03-22T14:50:41;15.00;;;12.90;;
51525;SDS011;37611;51.794;21.590;2024-03-22T14:54:43;16.00;;;13.60;;
51525;SDS011;37611;51.794;21.590;2024-03-22T14:58:45;19.50;;;16.30;;
51525;SDS011;37611;51.794;21.590;2024-03-22T15:02:47;25.20;;;18.00;;
51525;SDS011;37611;51.794;21.590;2024-03-22T15:06:49;26.50;;;19.10;;
51525;SDS011;37611;51.794;21.590;2024-03-22T15:10:52;21.00;;;16.80;;
51525;SDS011;37611;51.794;21.590;2024-03-22T15:14:54;21.50;;;16.00;;
51525;SDS011;37611;51.794;21.590;2024-03-22T15:18:55;21.30;;;17.90;;
51525;SDS011;37611;51.794;21.590;2024-03-22T15:22:57;21.70;;;17.70;;
51525;SDS011;37611;51.794;21.590;2024-03-22T15:26:59;46.10;;;28.70;;
51525;SDS011;37611;51.794;21.590;2024-03-22T15:31:01;23.00;;;19.00;;
51525;SDS011;37611;51.794;21.590;2024-03-22T15:35:04;26.10;;;19.70;;
51525;SDS011;37611;51.794;21.590;2024-03-22T15:39:06;34.60;;;25.50;;
51525;SDS011;37611;51.794;21.590;2024-03-22T15:43:09;23.90;;;18.60;;
51525;SDS011;37611;51.794;21.590;2024-03-22T15:47:12;27.90;;;21.30;;
51525;SDS011;37611;51.794;21.590;2024-03-22T15:51:14;33.30;;;23.50;;
51525;SDS011;37611;51.794;21.590;2024-03-22T15:55:15;32.80;;;24.10;;
51525;SDS011;37611;51.794;21.590;2024-03-22T15:59:17;28.50;;;21.90;;
51525;SDS011;37611;51.794;21.590;2024-03-22T16:03:20;26.70;;;19.60;;
51525;SDS011;37611;51.794;21.590;2024-03-22T16:07:21;20.40;;;17.00;;
51525;SDS011;37611;51.794;21.590;2024-03-22T16:11:23;20.60;;;17.30;;
51525;SDS011;37611;51.794;21.590;2024-03-22T16:15:25;24.10;;;20.40;;
51525;SDS011;37611;51.794;21.590;2024-03-22T16:19:27;27.00;;;22.90;;
51525;SDS011;37611;51.794;21.590;2024-03-22T16:23:30;33.50;;;25.20;;
51525;SDS011;37611;51.794;21.590;2024-03-22T16:27:31;32.90;;;26.40;;
51525;SDS011;37611;51.794;21.590;2024-03-22T16:31:35;27.60;;;23.90;;
51525;SDS011;37611;51.794;21.590;2024-03-22T16:35:37;25.00;;;22.00;;
51525;SDS011;37611;51.794;21.590;2024-03-22T16:39:38;25.60;;;23.00;;
51525;SDS011;37611;51.794;21.590;2024-03-22T16:43:40;49.50;;;38.60;;
51525;SDS011;37611;51.794;21.590;2024-03-22T16:47:42;59.10;;;47.20;;
51525;SDS011;37611;51.794;21.590;2024-03-22T16:51:44;61.80;;;49.50;;
51525;SDS011;37611;51.794;21.590;2024-03-22T16:55:46;65.40;;;52.10;;
51525;SDS011;37611;51.794;21.590;2024-03-22T16:59:48;93.40;;;77.90;;
51525;SDS011;37611;51.794;21.590;2024-03-22T17:03:49;70.60;;;59.00;;
51525;SDS011;37611;51.794;21.590;2024-03-22T17:07:51;51.20;;;41.70;;
51525;SDS011;37611;51.794;21.590;2024-03-22T17:11:53;45.80;;;35.00;;
51525;SDS011;37611;51.794;21.590;2024-03-22T17:15:55;45.00;;;35.20;;
51525;SDS011;37611;51.794;21.590;2024-03-22T17:19:57;45.60;;;36.00;;
51525;SDS011;37611;51.794;21.590;2024-03-22T17:23:59;48.90;;;35.90;;
51525;SDS011;37611;51.794;21.590;2024-03-22T17:28:00;55.80;;;41.70;;
51525;SDS011;37611;51.794;21.590;2024-03-22T17:32:03;56.80;;;39.40;;
51525;SDS011;37611;51.794;21.590;2024-03-22T17:36:05;69.10;;;52.30;;
51525;SDS011;37611;51.794;21.590;2024-03-22T17:40:08;88.20;;;73.00;;
51525;SDS011;37611;51.794;21.590;2024-03-22T17:44:11;44.80;;;39.10;;
51525;SDS011;37611;51.794;21.590;2024-03-22T17:48:12;33.40;;;28.20;;
51525;SDS011;37611;51.794;21.590;2024-03-22T17:52:14;50.00;;;41.60;;
51525;SDS011;37611;51.794;21.590;2024-03-22T17:56:16;56.60;;;47.60;;
51525;SDS011;37611;51.794;21.590;2024-03-22T18:00:18;43.40;;;37.80;;
51525;SDS011;37611;51.794;21.590;2024-03-22T18:04:20;39.60;;;32.50;;
51525;SDS011;37611;51.794;21.590;2024-03-22T18:08:22;40.10;;;34.60;;
51525;SDS011;37611;51.794;21.590;2024-03-22T18:12:24;35.50;;;31.60;;
51525;SDS011;37611;51.794;21.590;2024-03-22T18:16:25;46.00;;;34.90;;
51525;SDS011;37611;51.794;21.590;2024-03-22T18:20:27;52.20;;;39.00;;
51525;SDS011;37611;51.794;21.590;2024-03-22T18:24:29;45.00;;;33.70;;
51525;SDS011;37611;51.794;21.590;2024-03-22T18:28:32;47.20;;;34.20;;
51525;SDS011;37611;51.794;21.590;2024-03-22T18:32:34;42.30;;;34.40;;
51525;SDS011;37611;51.794;21.590;2024-03-22T18:36:36;42.60;;;33.30;;
51525;SDS011;37611;51.794;21.590;2024-03-22T18:40:38;33.60;;;27.40;;
51525;SDS011;37611;51.794;21.590;2024-03-22T18:44:39;29.20;;;24.20;;
51525;SDS011;37611;51.794;21.590;2024-03-22T18:48:42;26.20;;;21.80;;
51525;SDS011;37611;51.794;21.590;2024-03-22T18:52:45;33.20;;;25.20;;
51525;SDS011;37611;51.794;21.590;2024-03-22T18:56:46;29.00;;;23.20;;
51525;SDS011;37611;51.794;21.590;2024-03-22T19:00:48;31.40;;;24.40;;
51525;SDS011;37611;51.794;21.590;2024-03-22T19:04:50;24.80;;;20.80;;
51525;SDS011;37611;51.794;21.590;2024-03-22T19:08:52;26.20;;;20.80;;
51525;SDS011;37611;51.794;21.590;2024-03-22T19:12:54;21.70;;;18.30;;
51525;SDS011;37611;51.794;21.590;2024-03-22T19:16:56;25.50;;;19.50;;
51525;SDS011;37611;51.794;21.590;2024-03-22T19:20:57;21.90;;;19.40;;
51525;SDS011;37611;51.794;21.590;2024-03-22T19:24:59;23.20;;;18.20;;
51525;SDS011;37611;51.794;21.590;2024-03-22T19:29:01;21.30;;;18.10;;
51525;SDS011;37611;51.794;21.590;2024-03-22T19:33:03;27.70;;;23.20;;
51525;SDS011;37611;51.794;21.590;2024-03-22T19:37:07;29.40;;;25.30;;
51525;SDS011;37611;51.794;21.590;2024-03-22T19:41:10;27.90;;;21.90;;
51525;SDS011;37611;51.794;21.590;2024-03-22T19:45:12;51.30;;;32.40;;
51525;SDS011;37611;51.794;21.590;2024-03-22T19:49:14;55.30;;;34.90;;
51525;SDS011;37611;51.794;21.590;2024-03-22T19:53:15;43.90;;;30.40;;
51525;SDS011;37611;51.794;21.590;2024-03-22T19:57:17;38.00;;;27.80;;
51525;SDS011;37611;51.794;21.590;2024-03-22T20:01:19;33.20;;;25.70;;
51525;SDS011;37611;51.794;21.590;2024-03-22T20:05:21;28.20;;;25.10;;
51525;SDS011;37611;51.794;21.590;2024-03-22T20:09:23;27.70;;;24.60;;
51525;SDS011;37611;51.794;21.590;2024-03-22T20:13:25;25.90;;;21.50;;
51525;SDS011;37611;51.794;21.590;2024-03-22T20:17:27;24.70;;;20.90;;
51525;SDS011;37611;51.794;21.590;2024-03-22T20:21:29;23.60;;;19.10;;
51525;SDS011;37611;51.794;21.590;2024-03-22T20:25:31;24.70;;;18.70;;
51525;SDS011;37611;51.794;21.590;2024-03-22T20:29:33;22.90;;;18.50;;
51525;SDS011;37611;51.794;21.590;2024-03-22T20:33:35;20.50;;;16.40;;
51525;SDS011;37611;51.794;21.590;2024-03-22T20:37:37;19.30;;;15.70;;
